createdAt,value
2023-02-11T00:00:53.907Z,4.60
2023-02-11T00:04:55.063Z,4.60
2023-02-11T00:08:56.724Z,4.70
2023-02-11T00:12:57.779Z,4.70
2023-02-11T00:16:58.986Z,4.80
2023-02-11T00:21:01.982Z,4.80
2023-02-11T00:25:03.223Z,4.70
2023-02-11T00:29:04.981Z,4.80
2023-02-11T00:33:06.426Z,4.80
2023-02-11T00:37:07.612Z,4.90
2023-02-11T00:41:08.745Z,4.90
2023-02-11T00:45:11.210Z,5.00
2023-02-11T00:49:12.357Z,5.00
2023-02-11T00:53:13.430Z,5.00
2023-02-11T00:57:14.565Z,4.90
2023-02-11T01:01:17.047Z,5.10
2023-02-11T01:05:19.359Z,5.10
2023-02-11T01:09:20.483Z,5.00
2023-02-11T01:13:21.926Z,5.00
2023-02-11T01:17:22.986Z,5.10
2023-02-11T01:21:25.448Z,5.00
2023-02-11T01:25:26.591Z,5.10
2023-02-11T01:29:27.749Z,5.20
2023-02-11T01:33:29.822Z,5.20
2023-02-11T01:37:34.609Z,5.30
2023-02-11T01:41:36.979Z,5.30
2023-02-11T01:45:48.344Z,5.10
2023-02-11T01:49:58.496Z,5.20
2023-02-11T01:54:19.966Z,5.30
2023-02-11T01:58:22.428Z,5.30
2023-02-11T02:02:36.563Z,5.30
2023-02-11T02:06:44.573Z,5.20
2023-02-11T02:10:48.556Z,5.40
2023-02-11T02:14:49.701Z,5.30
2023-02-11T02:18:57.692Z,5.40
2023-02-11T02:23:05.156Z,5.30
2023-02-11T02:27:25.420Z,5.40
2023-02-11T02:31:39.293Z,5.50
2023-02-11T02:35:57.048Z,5.50
2023-02-11T02:40:02.005Z,5.40
2023-02-11T02:44:04.072Z,5.40
2023-02-11T02:48:06.398Z,5.50
2023-02-11T02:52:29.226Z,5.40
2023-02-11T02:56:50.495Z,5.50
2023-02-11T03:01:01.660Z,5.60
2023-02-11T03:05:15.423Z,5.70
2023-02-11T03:09:29.490Z,5.50
2023-02-11T03:13:33.874Z,5.60
2023-02-11T03:17:37.790Z,5.60
2023-02-11T03:21:41.840Z,5.70
2023-02-11T03:25:46.819Z,5.70
2023-02-11T03:30:00.690Z,5.70
2023-02-11T03:34:11.991Z,5.50
2023-02-11T03:38:19.421Z,5.60
2023-02-11T03:42:23.865Z,5.60
2023-02-11T03:46:28.726Z,5.50
2023-02-11T03:50:33.283Z,5.50
2023-02-11T03:54:34.826Z,5.50
2023-02-11T03:58:35.980Z,5.50
2023-02-11T04:02:38.338Z,5.40
2023-02-11T04:06:39.883Z,5.30
2023-02-11T04:10:41.032Z,5.30
2023-02-11T04:14:42.290Z,5.50
2023-02-11T04:18:43.426Z,5.50
2023-02-11T04:22:44.493Z,5.60
2023-02-11T04:26:45.729Z,5.60
2023-02-11T04:30:49.214Z,5.50
2023-02-11T04:34:51.251Z,5.50
2023-02-11T04:38:52.415Z,5.50
2023-02-11T04:42:53.560Z,5.60
2023-02-11T04:46:54.608Z,5.50
2023-02-11T04:50:55.776Z,5.70
2023-02-11T04:54:56.962Z,5.70
2023-02-11T04:58:58.121Z,5.70
2023-02-11T05:02:59.279Z,5.80
2023-02-11T05:07:01.125Z,5.70
2023-02-11T05:11:02.419Z,5.50
2023-02-11T05:15:04.187Z,5.60
2023-02-11T05:19:05.481Z,5.50
2023-02-11T05:23:06.935Z,5.50
2023-02-11T05:27:08.343Z,5.60
2023-02-11T05:31:11.123Z,5.70
2023-02-11T05:35:12.449Z,5.70
2023-02-11T05:39:13.595Z,5.80
2023-02-11T05:43:14.770Z,5.80
2023-02-11T05:47:15.974Z,5.60
2023-02-11T05:51:17.145Z,5.80
2023-02-11T05:55:18.563Z,5.70
2023-02-11T05:59:19.740Z,5.80
2023-02-11T06:03:20.920Z,5.80
2023-02-11T06:07:22.037Z,5.80
2023-02-11T06:11:23.085Z,5.80
2023-02-11T06:15:24.278Z,6.00
2023-02-11T06:19:25.397Z,5.80
2023-02-11T06:23:29.892Z,5.70
2023-02-11T06:27:29.815Z,5.90
2023-02-11T06:31:31.061Z,6.00
2023-02-11T06:35:34.356Z,6.00
2023-02-11T06:39:35.505Z,5.80
2023-02-11T06:43:36.669Z,5.80
2023-02-11T06:47:39.148Z,5.80
2023-02-11T06:51:40.332Z,5.60
2023-02-11T06:55:41.504Z,5.60
2023-02-11T06:59:42.674Z,5.50
2023-02-11T07:03:45.756Z,5.40
2023-02-11T07:07:48.807Z,5.40
2023-02-11T07:11:49.956Z,5.50
2023-02-11T07:15:51.606Z,5.60
2023-02-11T07:19:52.985Z,5.80
2023-02-11T07:23:54.267Z,5.70
2023-02-11T07:27:55.521Z,5.80
2023-02-11T07:31:56.707Z,5.90
2023-02-11T07:36:00.136Z,5.80
2023-02-11T07:40:01.598Z,5.90
2023-02-11T07:44:03.033Z,6.00
2023-02-11T07:48:04.562Z,6.00
2023-02-11T07:52:05.700Z,6.10
2023-02-11T07:56:08.992Z,6.10
2023-02-11T08:00:11.621Z,6.10
2023-02-11T08:04:13.247Z,6.30
2023-02-11T08:08:14.375Z,6.80
2023-02-11T08:12:15.636Z,7.20
2023-02-11T08:16:26.282Z,7.70
2023-02-11T08:20:27.475Z,7.60
2023-02-11T08:24:28.653Z,7.50
2023-02-11T08:28:29.931Z,7.50
2023-02-11T08:32:33.281Z,7.50
2023-02-11T08:36:35.980Z,7.60
2023-02-11T08:40:37.055Z,7.50
2023-02-11T08:44:38.674Z,7.50
2023-02-11T08:48:39.859Z,7.40
2023-02-11T08:52:41.012Z,7.30
2023-02-11T08:56:42.474Z,7.40
2023-02-11T09:00:44.633Z,7.60
2023-02-11T09:04:45.693Z,7.70
2023-02-11T09:08:49.626Z,7.70
2023-02-11T09:12:50.938Z,8.10
2023-02-11T09:16:52.428Z,8.50
2023-02-11T09:21:02.615Z,8.30
2023-02-11T09:25:04.028Z,8.60
2023-02-11T09:29:05.191Z,8.70
2023-02-11T09:33:06.465Z,8.60
2023-02-11T09:37:07.920Z,9.30
2023-02-11T09:41:24.668Z,9.20
2023-02-11T09:45:28.601Z,9.40
2023-02-11T09:49:45.740Z,9.20
2023-02-11T09:53:50.723Z,9.10
2023-02-11T09:57:51.993Z,9.20
2023-02-11T10:01:59.469Z,9.10
2023-02-11T10:06:10.637Z,8.90
2023-02-11T10:10:33.954Z,9.00
2023-02-11T10:15:07.425Z,9.00
2023-02-11T10:19:46.291Z,9.10
2023-02-11T10:23:51.262Z,8.90
2023-02-11T10:27:56.265Z,9.10
2023-02-11T10:31:58.748Z,9.10
2023-02-11T10:36:00.075Z,9.20
2023-02-11T10:40:01.216Z,9.30
2023-02-11T10:44:06.174Z,9.00
2023-02-11T10:48:28.013Z,9.00
2023-02-11T10:52:30.398Z,9.00
2023-02-11T10:56:49.029Z,9.30
2023-02-11T11:00:52.978Z,9.10
2023-02-11T11:05:00.245Z,9.40
2023-02-11T11:09:02.495Z,9.50
2023-02-11T11:13:13.750Z,9.60
2023-02-11T11:17:18.204Z,9.40
2023-02-11T11:21:26.649Z,9.40
2023-02-11T11:25:29.693Z,9.20
2023-02-11T11:29:37.641Z,9.30
2023-02-11T11:33:42.211Z,9.30
2023-02-11T11:37:44.753Z,9.40
2023-02-11T11:41:52.718Z,9.50
2023-02-11T11:45:56.676Z,10.10
2023-02-11T11:50:21.191Z,10.40
2023-02-11T11:54:24.921Z,11.00
2023-02-11T11:58:28.686Z,10.70
2023-02-11T12:02:53.243Z,10.50
2023-02-11T12:07:06.987Z,9.90
2023-02-11T12:11:26.774Z,9.90
2023-02-11T12:15:51.778Z,10.00
2023-02-11T12:20:13.457Z,10.20
2023-02-11T12:24:24.582Z,10.40
2023-02-11T12:28:41.655Z,10.20
2023-02-11T12:33:04.025Z,10.50
2023-02-11T12:37:41.567Z,10.40
2023-02-11T12:42:17.181Z,10.30
2023-02-11T12:46:40.114Z,10.40
2023-02-11T12:50:54.566Z,10.30
2023-02-11T12:55:05.763Z,10.40
2023-02-11T12:59:27.090Z,10.30
2023-02-11T13:03:40.690Z,10.40
2023-02-11T13:07:45.255Z,10.20
2023-02-11T13:11:51.198Z,10.30
2023-02-11T13:16:08.173Z,10.40
2023-02-11T13:20:36.028Z,10.50
2023-02-11T13:24:41.010Z,10.50
2023-02-11T13:28:45.991Z,10.80
2023-02-11T13:32:57.285Z,11.00
2023-02-11T13:36:58.443Z,11.10
2023-02-11T13:41:20.238Z,11.00
2023-02-11T13:45:28.503Z,10.90
2023-02-11T13:49:41.331Z,10.50
2023-02-11T13:53:57.681Z,10.50
2023-02-11T13:58:20.476Z,10.40
2023-02-11T14:02:43.716Z,10.40
2023-02-11T14:06:59.698Z,10.40
2023-02-11T14:11:12.082Z,10.30
2023-02-11T14:15:19.858Z,10.30
2023-02-11T14:19:39.654Z,10.10
2023-02-11T14:23:41.760Z,10.10
2023-02-11T14:27:54.477Z,10.00
2023-02-11T14:32:09.198Z,10.10
2023-02-11T14:36:29.639Z,10.10
2023-02-11T14:41:01.793Z,9.90
2023-02-11T14:45:06.876Z,9.90
2023-02-11T14:49:11.838Z,10.40
2023-02-11T14:53:16.595Z,10.90
2023-02-11T14:57:19.996Z,10.60
2023-02-11T15:01:31.969Z,10.60
2023-02-11T15:05:34.129Z,10.50
2023-02-11T15:09:45.166Z,10.20
2023-02-11T15:13:54.293Z,10.30
2023-02-11T15:17:58.548Z,10.30
2023-02-11T15:22:00.136Z,10.30
2023-02-11T15:26:03.314Z,11.00
2023-02-11T15:30:08.512Z,11.70
2023-02-11T15:34:11.181Z,11.10
2023-02-11T15:38:12.721Z,10.70
2023-02-11T15:42:23.831Z,10.70
2023-02-11T15:46:28.874Z,10.70
2023-02-11T15:50:34.393Z,10.50
2023-02-11T15:54:36.056Z,10.00
2023-02-11T15:58:40.125Z,9.80
2023-02-11T16:02:46.737Z,9.90
2023-02-11T16:06:49.283Z,10.00
2023-02-11T16:10:57.957Z,10.00
2023-02-11T16:15:02.899Z,9.80
2023-02-11T16:19:06.275Z,9.70
2023-02-11T16:23:07.765Z,9.80
2023-02-11T16:27:25.037Z,9.80
2023-02-11T16:31:32.268Z,9.60
2023-02-11T16:35:33.395Z,9.70
2023-02-11T16:39:34.679Z,9.60
2023-02-11T16:43:35.986Z,9.50
2023-02-11T16:47:40.391Z,9.50
2023-02-11T16:51:42.338Z,9.50
2023-02-11T16:55:43.496Z,9.40
2023-02-11T16:59:44.953Z,9.60
2023-02-11T17:03:46.609Z,9.50
2023-02-11T17:07:48.657Z,9.40
2023-02-11T17:11:50.596Z,9.40
2023-02-11T17:15:52.026Z,9.40
2023-02-11T17:19:53.300Z,9.40
2023-02-11T17:23:54.379Z,9.20
2023-02-11T17:27:55.526Z,9.20
2023-02-11T17:31:56.815Z,9.30
2023-02-11T17:35:58.058Z,9.20
2023-02-11T17:39:59.329Z,9.20
2023-02-11T17:44:01.324Z,9.30
2023-02-11T17:48:02.493Z,9.20
2023-02-11T17:52:03.649Z,9.20
2023-02-11T17:56:06.545Z,9.20
2023-02-11T18:00:09.021Z,9.20
2023-02-11T18:04:13.899Z,9.30
2023-02-11T18:08:15.005Z,9.20
2023-02-11T18:12:18.699Z,9.30
2023-02-11T18:16:21.279Z,9.40
2023-02-11T18:20:22.433Z,9.20
2023-02-11T18:24:23.570Z,9.30
2023-02-11T18:28:24.732Z,9.30
2023-02-11T18:32:25.902Z,9.40
2023-02-11T18:36:27.603Z,9.40
2023-02-11T18:40:28.736Z,9.40
2023-02-11T18:44:29.878Z,9.30
2023-02-11T18:48:31.042Z,9.20
2023-02-11T18:52:33.406Z,9.00
2023-02-11T18:56:34.539Z,9.00
2023-02-11T19:00:38.384Z,9.00
2023-02-11T19:04:39.604Z,9.00
2023-02-11T19:08:41.081Z,9.20
2023-02-11T19:12:42.348Z,9.30
2023-02-11T19:16:45.489Z,9.30
2023-02-11T19:20:46.629Z,9.30
2023-02-11T19:24:48.029Z,9.30
2023-02-11T19:28:49.247Z,9.30
2023-02-11T19:32:51.894Z,9.30
2023-02-11T19:36:53.672Z,9.30
2023-02-11T19:40:56.727Z,9.20
2023-02-11T19:44:57.915Z,9.40
2023-02-11T19:49:00.786Z,9.40
2023-02-11T19:53:01.928Z,9.30
2023-02-11T19:57:03.208Z,9.30
2023-02-11T20:01:10.445Z,9.40
2023-02-11T20:05:11.588Z,9.50
2023-02-11T20:09:14.163Z,9.40
2023-02-11T20:13:15.313Z,9.40
2023-02-11T20:17:16.466Z,9.40
2023-02-11T20:21:21.004Z,9.40
2023-02-11T20:25:22.268Z,9.40
2023-02-11T20:29:24.291Z,9.30
2023-02-11T20:33:25.460Z,9.30
2023-02-11T20:37:28.015Z,9.30
2023-02-11T20:41:33.496Z,9.30
2023-02-11T20:45:34.924Z,9.20
2023-02-11T20:49:36.076Z,9.30
2023-02-11T20:53:40.361Z,9.30
2023-02-11T20:57:41.694Z,9.30
2023-02-11T21:01:45.685Z,9.30
2023-02-11T21:05:46.909Z,9.30
2023-02-11T21:09:48.057Z,9.30
2023-02-11T21:13:50.429Z,9.20
2023-02-11T21:17:51.578Z,9.00
2023-02-11T21:21:54.432Z,9.00
2023-02-11T21:25:56.815Z,8.90
2023-02-11T21:30:00.492Z,8.80
2023-02-11T21:34:01.652Z,8.90
2023-02-11T21:38:04.016Z,9.00
2023-02-11T21:42:05.173Z,9.00
2023-02-11T21:46:09.203Z,9.00
2023-02-11T21:50:10.724Z,9.00
2023-02-11T21:54:11.902Z,8.90
2023-02-11T21:58:13.341Z,9.00
2023-02-11T22:02:14.475Z,8.90
2023-02-11T22:06:20.528Z,9.00
2023-02-11T22:10:22.382Z,9.00
2023-02-11T22:14:23.538Z,8.90
2023-02-11T22:18:24.682Z,9.00
2023-02-11T22:22:28.460Z,9.10
2023-02-11T22:26:29.653Z,9.00
2023-02-11T22:30:30.776Z,9.00
2023-02-11T22:34:31.934Z,8.90
2023-02-11T22:38:34.183Z,9.00
2023-02-11T22:42:35.521Z,8.90
2023-02-11T22:46:37.640Z,8.90
2023-02-11T22:50:39.471Z,8.90
2023-02-11T22:54:40.842Z,8.90
2023-02-11T22:58:42.804Z,8.90
2023-02-11T23:02:44.562Z,8.90
2023-02-11T23:06:47.054Z,8.80
2023-02-11T23:10:48.912Z,8.90
2023-02-11T23:14:50.517Z,8.80
2023-02-11T23:18:53.684Z,8.90
2023-02-11T23:22:54.840Z,9.00
2023-02-11T23:26:56.032Z,9.10
2023-02-11T23:30:57.201Z,9.00
2023-02-11T23:34:58.361Z,9.10
2023-02-11T23:39:00.090Z,9.20
2023-02-11T23:43:01.221Z,9.20
2023-02-11T23:47:02.609Z,9.20
2023-02-11T23:51:04.771Z,9.20
2023-02-11T23:55:06.770Z,9.10
2023-02-11T23:59:08.517Z,9.00
